createdAt,value
2023-03-30T00:01:14.808Z,5.85
2023-03-30T00:03:43.697Z,6.55
2023-03-30T00:06:12.438Z,6.75
2023-03-30T00:08:39.212Z,5.53
2023-03-30T00:11:13.277Z,6.47
2023-03-30T00:13:40.509Z,6.90
2023-03-30T00:16:10.144Z,6.15
2023-03-30T00:18:37.194Z,7.22
2023-03-30T00:21:05.238Z,6.95
2023-03-30T00:23:33.032Z,6.55
2023-03-30T00:26:00.651Z,6.68
2023-03-30T00:28:30.989Z,6.40
2023-03-30T00:30:58.492Z,7.15
2023-03-30T00:33:41.425Z,7.13
2023-03-30T00:36:11.330Z,7.18
2023-03-30T00:38:38.190Z,6.75
2023-03-30T00:41:05.587Z,5.78
2023-03-30T00:43:33.549Z,7.13
2023-03-30T00:46:00.515Z,5.88
2023-03-30T00:48:32.875Z,7.30
2023-03-30T00:51:05.285Z,6.95
2023-03-30T00:54:03.994Z,6.10
2023-03-30T00:56:31.678Z,6.07
2023-03-30T00:59:00.095Z,6.57
2023-03-30T01:01:28.679Z,7.15
2023-03-30T01:04:05.431Z,7.13
2023-03-30T01:06:34.742Z,6.78
2023-03-30T01:09:01.569Z,6.55
2023-03-30T01:11:28.539Z,6.25
2023-03-30T01:14:03.246Z,6.57
2023-03-30T01:16:35.446Z,6.72
2023-03-30T01:19:48.149Z,6.05
2023-03-30T01:23:10.676Z,6.35
2023-03-30T01:26:01.590Z,6.25
2023-03-30T01:28:53.161Z,6.15
2023-03-30T01:32:01.996Z,6.82
2023-03-30T01:34:43.911Z,6.32
2023-03-30T01:37:16.386Z,6.70
2023-03-30T01:40:20.059Z,6.35
2023-03-30T01:43:15.553Z,6.05
2023-03-30T01:45:46.129Z,6.38
2023-03-30T01:48:29.215Z,6.28
2023-03-30T01:51:01.405Z,6.53
2023-03-30T01:53:46.651Z,6.60
2023-03-30T01:56:27.249Z,5.97
2023-03-30T01:59:11.586Z,5.80
2023-03-30T02:01:41.590Z,6.55
2023-03-30T02:04:11.728Z,5.43
2023-03-30T02:06:46.018Z,5.72
2023-03-30T02:11:46.558Z,5.57
2023-03-30T02:14:17.373Z,5.35
2023-03-30T02:16:50.657Z,4.55
2023-03-30T02:19:18.962Z,5.50
2023-03-30T02:21:46.545Z,4.78
2023-03-30T02:24:19.255Z,4.72
2023-03-30T02:26:47.996Z,5.07
2023-03-30T02:29:16.118Z,5.10
2023-03-30T02:31:45.522Z,4.88
2023-03-30T02:34:43.916Z,5.10
2023-03-30T02:37:50.355Z,4.85
2023-03-30T02:40:44.986Z,4.60
2023-03-30T02:43:41.867Z,4.07
2023-03-30T02:46:31.137Z,4.20
2023-03-30T02:49:31.517Z,4.43
2023-03-30T02:52:36.839Z,4.78
2023-03-30T02:58:16.188Z,3.53
2023-03-30T03:00:59.531Z,3.60
2023-03-30T03:03:58.152Z,4.10
2023-03-30T03:06:26.514Z,3.92
2023-03-30T03:08:55.513Z,4.35
2023-03-30T03:11:23.081Z,3.78
2023-03-30T03:13:50.557Z,3.92
2023-03-30T03:16:17.671Z,3.78
2023-03-30T03:18:44.666Z,4.28
2023-03-30T03:21:13.740Z,3.60
2023-03-30T03:23:40.936Z,3.30
2023-03-30T03:26:08.624Z,3.65
2023-03-30T03:28:36.262Z,3.60
2023-03-30T03:31:03.826Z,3.33
2023-03-30T03:33:33.447Z,3.72
2023-03-30T03:36:00.442Z,3.78
2023-03-30T03:38:28.664Z,3.17
2023-03-30T03:40:58.044Z,3.25
2023-03-30T03:43:26.083Z,3.17
2023-03-30T03:45:53.854Z,3.35
2023-03-30T03:48:23.925Z,3.70
2023-03-30T03:50:57.346Z,3.78
2023-03-30T03:53:27.443Z,3.30
2023-03-30T03:55:55.016Z,2.78
2023-03-30T03:58:22.941Z,2.92
2023-03-30T04:00:50.403Z,3.17
2023-03-30T04:03:17.298Z,2.78
2023-03-30T04:05:44.381Z,3.50
2023-03-30T04:08:11.811Z,2.97
2023-03-30T04:10:40.917Z,3.00
2023-03-30T04:13:07.910Z,3.00
2023-03-30T04:15:34.724Z,2.97
2023-03-30T04:18:01.695Z,2.85
2023-03-30T04:20:29.750Z,2.95
2023-03-30T04:22:57.112Z,2.85
2023-03-30T04:25:25.789Z,2.67
2023-03-30T04:27:53.734Z,3.45
2023-03-30T04:30:22.407Z,3.38
2023-03-30T04:33:02.817Z,3.00
2023-03-30T04:35:34.032Z,3.00
2023-03-30T04:38:01.999Z,3.00
2023-03-30T04:40:29.056Z,2.60
2023-03-30T04:43:01.984Z,2.95
2023-03-30T04:45:30.620Z,3.20
2023-03-30T04:47:57.719Z,2.95
2023-03-30T04:50:24.773Z,2.83
2023-03-30T04:52:51.519Z,2.95
2023-03-30T04:55:18.371Z,3.05
2023-03-30T04:57:45.257Z,2.40
2023-03-30T05:00:13.568Z,2.60
2023-03-30T05:02:40.949Z,2.85
2023-03-30T05:05:08.272Z,2.63
2023-03-30T05:07:35.047Z,2.47
2023-03-30T05:10:01.808Z,2.65
2023-03-30T05:12:28.644Z,2.65
2023-03-30T05:14:55.589Z,2.58
2023-03-30T05:17:22.384Z,2.63
2023-03-30T05:19:49.163Z,2.47
2023-03-30T05:22:16.317Z,2.40
2023-03-30T05:24:43.117Z,2.13
2023-03-30T05:27:09.874Z,2.90
2023-03-30T05:29:36.713Z,2.80
2023-03-30T05:32:03.514Z,2.40
2023-03-30T05:34:30.396Z,2.55
2023-03-30T05:36:57.161Z,2.08
2023-03-30T05:39:24.695Z,2.65
2023-03-30T05:41:51.568Z,2.88
2023-03-30T05:44:20.591Z,3.25
2023-03-30T05:46:48.842Z,2.28
2023-03-30T05:49:15.656Z,2.65
2023-03-30T05:51:42.425Z,2.50
2023-03-30T05:54:12.650Z,2.30
2023-03-30T05:56:40.620Z,2.72
2023-03-30T05:59:07.762Z,2.50
2023-03-30T06:01:34.882Z,3.95
2023-03-30T06:04:01.735Z,3.33
2023-03-30T06:06:29.065Z,2.65
2023-03-30T06:08:56.095Z,2.15
2023-03-30T06:11:22.917Z,2.30
2023-03-30T06:13:49.723Z,2.22
2023-03-30T06:16:16.753Z,2.20
2023-03-30T06:18:43.558Z,3.10
2023-03-30T06:21:11.631Z,2.15
2023-03-30T06:23:38.430Z,2.50
2023-03-30T06:26:05.465Z,2.30
2023-03-30T06:28:32.308Z,2.22
2023-03-30T06:31:01.609Z,2.38
2023-03-30T06:33:29.018Z,2.55
2023-03-30T06:35:55.917Z,1.92
2023-03-30T06:38:23.353Z,2.17
2023-03-30T06:40:51.341Z,2.00
2023-03-30T06:43:21.707Z,2.08
2023-03-30T06:45:54.129Z,2.45
2023-03-30T06:48:23.902Z,1.95
2023-03-30T06:50:52.416Z,2.10
2023-03-30T06:53:21.114Z,1.80
2023-03-30T06:55:57.029Z,2.10
2023-03-30T06:58:26.230Z,1.67
2023-03-30T07:00:53.779Z,1.52
2023-03-30T07:03:21.014Z,1.80
2023-03-30T07:05:52.206Z,1.48
2023-03-30T07:08:20.111Z,1.92
2023-03-30T07:10:48.296Z,2.22
2023-03-30T07:13:18.928Z,1.67
2023-03-30T07:15:46.907Z,2.05
2023-03-30T07:18:14.638Z,2.30
2023-03-30T07:20:41.521Z,1.77
2023-03-30T07:23:08.907Z,1.73
2023-03-30T07:25:35.835Z,2.13
2023-03-30T07:28:03.350Z,1.90
2023-03-30T07:30:30.115Z,2.03
2023-03-30T07:32:58.546Z,1.85
2023-03-30T07:35:26.289Z,2.00
2023-03-30T07:38:02.349Z,1.67
2023-03-30T07:40:30.377Z,1.70
2023-03-30T07:42:57.288Z,2.10
2023-03-30T07:45:24.060Z,1.85
2023-03-30T07:47:51.161Z,1.33
2023-03-30T07:50:18.097Z,1.60
2023-03-30T07:52:44.951Z,1.77
2023-03-30T07:55:11.734Z,1.55
2023-03-30T07:57:39.270Z,1.63
2023-03-30T08:00:09.263Z,1.50
2023-03-30T08:02:36.947Z,1.63
2023-03-30T08:05:04.373Z,1.67
2023-03-30T08:07:34.094Z,1.77
2023-03-30T08:10:01.026Z,1.80
2023-03-30T08:12:28.059Z,1.80
2023-03-30T08:14:55.662Z,1.52
2023-03-30T08:17:22.535Z,1.40
2023-03-30T08:19:49.332Z,1.40
2023-03-30T08:22:16.192Z,1.35
2023-03-30T08:24:42.960Z,1.80
2023-03-30T08:27:09.780Z,1.23
2023-03-30T08:29:36.566Z,2.17
2023-03-30T08:32:03.413Z,2.13
2023-03-30T08:34:31.666Z,1.55
2023-03-30T08:36:58.473Z,2.10
2023-03-30T08:39:25.567Z,1.50
2023-03-30T08:42:00.059Z,1.70
2023-03-30T08:44:37.800Z,1.33
2023-03-30T08:47:12.675Z,1.60
2023-03-30T08:49:57.962Z,1.83
2023-03-30T08:52:25.850Z,1.50
2023-03-30T08:54:52.897Z,1.52
2023-03-30T08:57:40.649Z,1.60
2023-03-30T09:00:22.171Z,1.20
2023-03-30T09:02:54.824Z,1.20
2023-03-30T09:05:37.556Z,1.45
2023-03-30T09:08:14.756Z,1.23
2023-03-30T09:10:46.737Z,1.50
2023-03-30T09:13:19.119Z,1.50
2023-03-30T09:16:05.100Z,1.38
2023-03-30T09:18:34.820Z,1.40
2023-03-30T09:21:06.071Z,1.60
2023-03-30T09:23:34.187Z,1.60
2023-03-30T09:26:13.309Z,1.50
2023-03-30T09:28:54.999Z,1.83
2023-03-30T09:31:44.445Z,1.15
2023-03-30T09:34:35.926Z,1.80
2023-03-30T09:37:18.499Z,1.80
2023-03-30T09:39:46.072Z,2.25
2023-03-30T09:42:42.930Z,2.28
2023-03-30T09:45:33.163Z,1.85
2023-03-30T09:48:08.767Z,1.70
2023-03-30T09:50:43.095Z,1.60
2023-03-30T09:53:29.318Z,2.00
2023-03-30T09:56:18.358Z,1.35
2023-03-30T09:58:45.237Z,1.80
2023-03-30T10:01:18.353Z,2.13
2023-03-30T10:04:05.903Z,1.88
2023-03-30T10:06:47.392Z,1.80
2023-03-30T10:09:15.776Z,1.73
2023-03-30T10:11:51.142Z,1.60
2023-03-30T10:14:34.298Z,1.77
2023-03-30T10:17:02.654Z,2.03
2023-03-30T10:19:29.983Z,2.78
2023-03-30T10:21:59.878Z,1.65
2023-03-30T10:24:31.439Z,2.47
2023-03-30T10:27:09.902Z,2.08
2023-03-30T10:29:36.896Z,1.90
2023-03-30T10:32:15.628Z,2.40
2023-03-30T10:35:02.488Z,2.00
2023-03-30T10:37:35.827Z,2.30
2023-03-30T10:40:19.990Z,2.03
2023-03-30T10:42:50.954Z,2.45
2023-03-30T10:45:28.439Z,2.25
2023-03-30T10:48:43.375Z,2.25
2023-03-30T10:51:49.570Z,2.05
2023-03-30T10:54:38.745Z,2.38
2023-03-30T10:57:18.118Z,1.95
2023-03-30T11:00:10.063Z,1.90
2023-03-30T11:02:56.803Z,1.30
2023-03-30T11:05:33.396Z,1.05
2023-03-30T11:08:16.179Z,1.23
2023-03-30T11:10:54.942Z,1.00
2023-03-30T11:13:25.014Z,0.88
2023-03-30T11:16:00.246Z,0.98
2023-03-30T11:18:59.955Z,0.65
2023-03-30T11:21:51.577Z,0.75
2023-03-30T11:24:21.654Z,0.85
2023-03-30T11:27:10.945Z,0.75
2023-03-30T11:29:56.707Z,0.75
2023-03-30T11:32:35.910Z,0.65
2023-03-30T11:35:41.771Z,1.13
2023-03-30T11:38:24.799Z,0.82
2023-03-30T11:40:57.708Z,0.90
2023-03-30T11:43:28.667Z,0.90
2023-03-30T11:46:24.157Z,1.42
2023-03-30T11:49:28.274Z,1.05
2023-03-30T11:52:21.436Z,1.27
2023-03-30T11:55:18.161Z,1.20
2023-03-30T11:58:15.883Z,1.30
2023-03-30T12:01:09.015Z,1.88
2023-03-30T12:03:44.519Z,1.65
2023-03-30T12:06:28.448Z,1.98
2023-03-30T12:08:55.109Z,1.63
2023-03-30T12:11:33.516Z,1.40
2023-03-30T12:14:01.206Z,2.05
2023-03-30T12:16:58.116Z,1.58
2023-03-30T12:19:52.936Z,1.58
2023-03-30T12:22:43.211Z,1.63
2023-03-30T12:25:22.871Z,1.35
2023-03-30T12:28:17.180Z,1.17
2023-03-30T12:30:48.368Z,1.38
2023-03-30T12:33:26.321Z,1.73
2023-03-30T12:35:57.622Z,1.70
2023-03-30T12:38:41.761Z,1.33
2023-03-30T12:41:15.968Z,1.50
2023-03-30T12:43:50.376Z,1.60
2023-03-30T12:49:33.279Z,1.30
2023-03-30T12:52:13.936Z,1.08
2023-03-30T12:55:04.662Z,1.65
2023-03-30T12:57:53.484Z,1.80
2023-03-30T13:00:51.048Z,1.08
2023-03-30T13:03:50.166Z,1.42
2023-03-30T13:06:36.001Z,0.98
2023-03-30T13:09:25.499Z,1.25
2023-03-30T13:11:55.263Z,1.00
2023-03-30T13:14:27.772Z,1.60
2023-03-30T13:16:54.435Z,1.10
2023-03-30T13:19:33.789Z,1.08
2023-03-30T13:22:13.170Z,1.17
2023-03-30T13:24:55.337Z,0.70
2023-03-30T13:27:30.197Z,0.77
2023-03-30T13:30:00.400Z,1.23
2023-03-30T13:32:52.254Z,1.58
2023-03-30T13:35:49.696Z,0.98
2023-03-30T13:38:59.892Z,0.70
2023-03-30T13:41:43.457Z,1.02
2023-03-30T13:44:41.213Z,0.88
2023-03-30T13:47:42.518Z,1.05
2023-03-30T13:50:27.355Z,0.98
2023-03-30T13:52:57.702Z,1.15
2023-03-30T13:55:33.538Z,1.67
2023-03-30T13:58:13.418Z,1.17
2023-03-30T14:00:55.588Z,1.85
2023-03-30T14:03:38.937Z,1.23
2023-03-30T14:06:21.250Z,1.42
2023-03-30T14:08:52.278Z,1.60
2023-03-30T14:11:23.936Z,1.48
2023-03-30T14:13:53.086Z,1.42
2023-03-30T14:16:27.256Z,1.75
2023-03-30T14:19:12.451Z,1.83
2023-03-30T14:21:45.104Z,1.33
2023-03-30T14:24:27.596Z,1.80
2023-03-30T14:27:03.826Z,1.60
2023-03-30T14:29:32.205Z,1.10
2023-03-30T14:32:09.153Z,2.50
2023-03-30T14:34:37.424Z,1.45
2023-03-30T14:37:08.031Z,1.50
2023-03-30T14:39:43.140Z,1.23
2023-03-30T14:42:16.984Z,1.25
2023-03-30T14:44:46.472Z,2.17
2023-03-30T14:47:14.893Z,1.30
2023-03-30T14:49:43.700Z,1.48
2023-03-30T14:52:21.417Z,1.25
2023-03-30T14:55:05.041Z,1.15
2023-03-30T14:57:38.144Z,1.45
2023-03-30T15:00:20.514Z,1.00
2023-03-30T15:02:53.172Z,1.48
2023-03-30T15:05:23.059Z,1.67
2023-03-30T15:07:51.854Z,1.77
2023-03-30T15:10:34.041Z,1.88
2023-03-30T15:13:03.595Z,1.58
2023-03-30T15:15:32.608Z,1.10
2023-03-30T15:18:00.266Z,1.50
2023-03-30T15:20:30.373Z,1.52
2023-03-30T15:22:57.466Z,1.50
2023-03-30T15:25:35.133Z,1.63
2023-03-30T15:28:08.216Z,1.55
2023-03-30T15:30:46.173Z,1.77
2023-03-30T15:33:45.378Z,1.63
2023-03-30T15:36:17.176Z,1.80
2023-03-30T15:38:58.905Z,1.90
2023-03-30T15:42:07.777Z,1.63
2023-03-30T15:44:41.150Z,3.03
2023-03-30T15:47:17.490Z,1.83
2023-03-30T15:49:49.389Z,1.92
2023-03-30T15:52:33.398Z,1.75
2023-03-30T15:55:27.415Z,2.10
2023-03-30T15:57:54.404Z,1.83
2023-03-30T16:00:24.429Z,2.50
2023-03-30T16:02:58.210Z,1.65
2023-03-30T16:05:31.761Z,2.13
2023-03-30T16:07:58.721Z,2.03
2023-03-30T16:10:32.534Z,1.95
2023-03-30T16:13:01.213Z,1.63
2023-03-30T16:15:31.522Z,1.15
2023-03-30T16:17:58.372Z,1.65
2023-03-30T16:20:29.563Z,1.70
2023-03-30T16:22:56.358Z,1.42
2023-03-30T16:25:41.730Z,1.92
2023-03-30T16:28:17.119Z,1.20
2023-03-30T16:30:47.188Z,2.38
2023-03-30T16:33:14.107Z,1.50
2023-03-30T16:35:40.948Z,1.27
2023-03-30T16:38:13.874Z,1.15
2023-03-30T16:40:47.504Z,1.60
2023-03-30T16:43:14.393Z,1.55
2023-03-30T16:45:41.196Z,1.33
2023-03-30T16:48:08.143Z,1.05
2023-03-30T16:50:41.857Z,1.80
2023-03-30T16:53:09.859Z,1.15
2023-03-30T16:55:38.163Z,2.03
2023-03-30T16:58:07.269Z,2.15
2023-03-30T17:00:40.917Z,1.60
2023-03-30T17:03:08.929Z,2.00
2023-03-30T17:05:36.497Z,1.55
2023-03-30T17:08:18.261Z,1.65
2023-03-30T17:10:45.120Z,1.60
2023-03-30T17:13:11.963Z,1.60
2023-03-30T17:15:39.086Z,1.60
2023-03-30T17:18:09.776Z,1.45
2023-03-30T17:20:41.589Z,1.38
2023-03-30T17:23:10.494Z,1.60
2023-03-30T17:25:39.630Z,1.65
2023-03-30T17:28:10.438Z,1.50
2023-03-30T17:30:41.770Z,1.58
2023-03-30T17:33:10.625Z,1.60
2023-03-30T17:35:39.204Z,1.38
2023-03-30T17:38:09.139Z,1.13
2023-03-30T17:40:38.746Z,1.65
2023-03-30T17:43:07.067Z,1.88
2023-03-30T17:45:35.101Z,1.60
2023-03-30T17:48:03.713Z,1.80
2023-03-30T17:50:36.940Z,1.70
2023-03-30T17:53:03.893Z,1.85
2023-03-30T17:55:33.056Z,1.90
2023-03-30T17:58:00.449Z,1.60
2023-03-30T18:00:31.617Z,1.50
2023-03-30T18:03:00.714Z,1.58
2023-03-30T18:05:31.268Z,1.73
2023-03-30T18:07:58.504Z,1.50
2023-03-30T18:10:38.297Z,1.75
2023-03-30T18:13:06.419Z,1.45
2023-03-30T18:15:33.727Z,2.80
2023-03-30T18:18:00.981Z,3.58
2023-03-30T18:20:39.565Z,2.22
2023-03-30T18:23:06.984Z,1.98
2023-03-30T18:25:33.775Z,1.55
2023-03-30T18:28:01.646Z,3.80
2023-03-30T18:30:37.613Z,2.00
2023-03-30T18:33:06.438Z,1.80
2023-03-30T18:35:36.447Z,1.60
2023-03-30T18:38:04.545Z,1.60
2023-03-30T18:40:34.583Z,1.75
2023-03-30T18:43:01.924Z,1.50
2023-03-30T18:45:35.980Z,1.40
2023-03-30T18:48:03.182Z,1.50
2023-03-30T18:50:40.214Z,1.80
2023-03-30T18:53:10.327Z,1.23
2023-03-30T18:55:40.707Z,1.30
2023-03-30T18:58:25.390Z,2.13
2023-03-30T19:03:21.616Z,1.45
2023-03-30T19:05:49.481Z,1.70
2023-03-30T19:08:23.175Z,1.65
2023-03-30T19:10:56.933Z,1.73
2023-03-30T19:13:26.503Z,2.88
2023-03-30T19:15:54.306Z,1.88
2023-03-30T19:18:21.820Z,2.17
2023-03-30T19:20:50.599Z,2.05
2023-03-30T19:23:18.363Z,1.63
2023-03-30T19:25:45.830Z,1.30
2023-03-30T19:28:14.497Z,1.77
2023-03-30T19:30:41.517Z,2.08
2023-03-30T19:33:12.290Z,1.52
2023-03-30T19:35:44.324Z,1.58
2023-03-30T19:38:11.317Z,1.50
2023-03-30T19:40:39.251Z,1.83
2023-03-30T19:43:07.437Z,1.38
2023-03-30T19:45:34.268Z,1.08
2023-03-30T19:48:01.124Z,1.77
2023-03-30T19:50:29.991Z,1.15
2023-03-30T19:52:57.821Z,1.70
2023-03-30T19:55:24.791Z,1.40
2023-03-30T19:57:51.599Z,1.10
2023-03-30T20:00:19.616Z,1.63
2023-03-30T20:02:49.963Z,1.38
2023-03-30T20:05:18.224Z,1.77
2023-03-30T20:07:46.950Z,1.52
2023-03-30T20:10:19.154Z,1.63
2023-03-30T20:12:46.704Z,5.70
2023-03-30T20:15:14.123Z,2.45
2023-03-30T20:17:41.917Z,1.83
2023-03-30T20:20:12.500Z,2.58
2023-03-30T20:22:42.711Z,1.50
2023-03-30T20:25:13.359Z,1.50
2023-03-30T20:27:40.394Z,1.00
2023-03-30T20:30:08.269Z,1.98
2023-03-30T20:32:35.339Z,1.40
2023-03-30T20:35:02.158Z,1.70
2023-03-30T20:37:28.944Z,1.42
2023-03-30T20:40:03.617Z,1.55
2023-03-30T20:42:31.711Z,1.33
2023-03-30T20:44:59.197Z,1.38
2023-03-30T20:47:29.928Z,1.23
2023-03-30T20:49:57.076Z,1.33
2023-03-30T20:52:23.950Z,1.88
2023-03-30T20:54:52.333Z,1.60
2023-03-30T20:57:24.032Z,1.90
2023-03-30T20:59:53.317Z,1.70
2023-03-30T21:02:20.475Z,1.48
2023-03-30T21:04:47.859Z,1.23
2023-03-30T21:07:16.263Z,1.23
2023-03-30T21:09:43.568Z,1.73
2023-03-30T21:12:10.611Z,1.67
2023-03-30T21:14:37.376Z,1.38
2023-03-30T21:17:04.653Z,1.83
2023-03-30T21:19:31.482Z,1.50
2023-03-30T21:22:00.146Z,2.25
2023-03-30T21:24:27.133Z,2.08
2023-03-30T21:26:53.897Z,2.20
2023-03-30T21:29:21.925Z,1.98
2023-03-30T21:31:49.678Z,2.00
2023-03-30T21:34:18.554Z,1.83
2023-03-30T21:36:45.583Z,2.10
2023-03-30T21:39:12.496Z,1.73
2023-03-30T21:41:39.288Z,1.50
2023-03-30T21:44:06.128Z,1.98
2023-03-30T21:46:32.880Z,2.25
2023-03-30T21:48:59.701Z,2.30
2023-03-30T21:51:29.211Z,2.05
2023-03-30T21:53:57.455Z,2.17
2023-03-30T21:56:28.739Z,1.60
2023-03-30T21:58:55.664Z,1.70
2023-03-30T22:01:24.134Z,1.67
2023-03-30T22:03:52.091Z,1.50
2023-03-30T22:06:19.667Z,1.40
2023-03-30T22:08:47.157Z,1.63
2023-03-30T22:11:23.748Z,1.58
2023-03-30T22:13:52.068Z,1.50
2023-03-30T22:16:25.909Z,1.48
2023-03-30T22:19:03.039Z,2.10
2023-03-30T22:21:33.949Z,2.00
2023-03-30T22:24:07.125Z,2.13
2023-03-30T22:26:35.573Z,1.65
2023-03-30T22:29:05.034Z,1.80
2023-03-30T22:31:32.423Z,2.17
2023-03-30T22:33:59.239Z,1.80
2023-03-30T22:36:29.878Z,1.35
2023-03-30T22:38:58.679Z,1.40
2023-03-30T22:41:26.442Z,1.58
2023-03-30T22:43:56.089Z,1.92
2023-03-30T22:46:24.945Z,2.10
2023-03-30T22:48:52.419Z,1.58
2023-03-30T22:51:25.872Z,1.40
2023-03-30T22:53:58.203Z,1.98
2023-03-30T22:56:25.928Z,1.58
2023-03-30T22:58:52.789Z,2.60
2023-03-30T23:01:21.513Z,2.00
2023-03-30T23:03:48.528Z,1.95
2023-03-30T23:06:18.699Z,2.35
2023-03-30T23:08:48.398Z,2.22
2023-03-30T23:11:15.898Z,1.80
2023-03-30T23:13:42.693Z,1.58
2023-03-30T23:16:10.399Z,1.75
2023-03-30T23:18:37.425Z,1.80
2023-03-30T23:21:06.704Z,1.73
2023-03-30T23:23:37.694Z,2.40
2023-03-30T23:26:10.000Z,1.95
2023-03-30T23:28:42.324Z,2.47
2023-03-30T23:31:14.137Z,2.28
2023-03-30T23:33:41.855Z,2.38
2023-03-30T23:36:10.282Z,1.75
2023-03-30T23:38:37.673Z,2.33
2023-03-30T23:41:05.934Z,2.20
2023-03-30T23:43:32.780Z,1.85
2023-03-30T23:45:59.572Z,2.10
2023-03-30T23:48:26.957Z,2.05
2023-03-30T23:50:53.723Z,2.45
2023-03-30T23:53:20.500Z,1.60
2023-03-30T23:55:49.965Z,2.20
2023-03-30T23:58:18.183Z,1.92
